Honolulu, HI (96815)

1:17 AM HST on February 22, 2017 (GMT -1000)
Allure Waikiki | | Change Station
Active Advisory: Small Craft Advisory

Elev 0 ft 21.29 °N, 157.83 °W | Updated 19 seconds ago

Clear
Clear
71.9 °F
Feels Like 77 °F
N
24.0
Wind Variable Wind from NE

Today
High -- | Low -- °F
--% Chance of Precip.
Yesterday
High -- | Low -- °F
Precip. -- in
Pressure 30.23 in
Visibility 10.0 miles
Clouds Few 2800 ft
Few 3700 ft
Heat Index 77 °F
Dew Point 55 °F
Humidity 56%
Rainfall 0.00 in
Snow Depth Not available.
6:56 AM 6:32 PM
Waning Crescent, 18% visible
METAR PHNL 221053Z 05013KT 10SM FEW028 FEW037 22/14 A3023 RMK AO2 SLP237 T02170144 $
Pressure 30.23 in
Visibility 10.0 miles
Clouds Few 2800 ft
Few 3700 ft
Heat Index 77 °F
Dew Point 55 °F
Humidity 56%
Rainfall 0.00 in
Snow Depth Not available.
6:56 AM 6:32 PM
Waning Crescent, 18% visible
METAR PHNL 221053Z 05013KT 10SM FEW028 FEW037 22/14 A3023 RMK AO2 SLP237 T02170144 $

Get Your Daily Forecast Email!

Thanks for signing up!

Be on the lookout for a verification email in your inbox.

You'll start receiving the daily forecast at 8 AM.

×

10-Day Weather Forecast

Almanac

Astronomy

Feb. 22, 2017 Rise Set
Actual Time
Civil Twilight
Nautical Twilight
Astronomical Twilight
Moon
Length of Visible Light
Length of Day
Tomorrow will be .
, % of the Moon is Illuminated

Today's Extremes

State Highs State Lows

Community

WunderPhotos

Upload Photos

1,962,540 photos uploaded!

WunderBlog® & News

Nearby

Air Quality

  Air Quality AQ Index Pollutant
Not available.

Snow Depth

Station Depth Elevation

Earthquake Activity

City Distance Mag. Time & Date
Minimum magnitude displayed is 2.5.

Coastal Water Temperatures

Place Temperature

Stations

Nearby Weather Stations

Station Location Temp. Windchill Dew Point Humidity Wind Precip. Elev Updated Type
                   

Watches & Warnings

Small Craft Advisory
Issued: 10:52 PM HST Feb. 21, 2017 – National Weather Service

... Small Craft Advisory remains in effect until 6 PM HST
Wednesday...

* winds and seas... east winds 20 to 30 kt. Seas 8 to 11 ft.

Precautionary/preparedness actions...

A Small Craft Advisory means that winds speeds of 25 to 33 knots
and/or seas 10 feet or greater are expected to produce conditions
hazardous to small craft. Inexperienced mariners... especially
those operating smaller vessels... should avoid navigating in
these conditions.